Terminal Aerodrome Forecast
Issued by NWS Atlanta, GA

Home | Current Version | Previous Version | Text Only | Print | Product List | Glossary On
Versions: 1 2 3 4 5 6 7 8 9 10 11 12 13 14 15 16 17 18 19 20 21 22 23 24 25 26 27 28 29 30 31 32 33
577
FTUS42 KFFC 271125
TAFAHN
TAF
KAHN 271125Z 2712/2812 VRB05KT P6SM SCT250
     FM271400 35008KT P6SM FEW050 SCT250
     FM280100 05005KT P6SM SKC=

USA.gov is the U.S. government's official web portal to all federal, state and local government web resources and services.